Time;durP1;ratioP1;P1;durP2;ratioP2;P2;SDS_P1;SDS_P2;PMS_P1;PMS_P2;Temp;Humidity;BMP_temperature;BMP_pressure;BME280_temperature;BME280_humidity;BME280_pressure;Samples;Min_cycle;Max_cycle;Signal;HPM_P1;HPM_P2
2021/04/17 00:01:13;;;;;;;1.00;0.63;;;;;;;4.84;49.43;101742.22;4840800;29;20091;-76
2021/04/17 00:03:38;;;;;;;0.80;0.80;;;;;;;4.78;49.40;101743.00;4826129;29;20034;-76
2021/04/17 00:06:05;;;;;;;0.52;0.52;;;;;;;4.71;48.73;101737.53;4821510;29;20099;-80
2021/04/17 00:08:30;;;;;;;0.90;0.90;;;;;;;4.71;49.32;101740.22;4819717;29;20042;-75
2021/04/17 00:10:56;;;;;;;0.40;0.40;;;;;;;4.68;48.90;101732.50;4804171;29;20094;-76
2021/04/17 00:13:22;;;;;;;0.25;0.20;;;;;;;4.64;49.14;101723.06;4821798;29;20023;-77
2021/04/17 00:15:47;;;;;;;0.28;0.28;;;;;;;4.72;48.43;101746.50;4821725;29;20038;-75
2021/04/17 00:18:16;;;;;;;0.80;0.20;;;;;;;4.64;48.24;101724.94;4823049;29;20034;-78
2021/04/17 00:20:44;;;;;;;0.40;0.40;;;;;;;4.63;49.10;101716.00;4830991;29;20062;-79
2021/04/17 00:23:12;;;;;;;0.25;0.25;;;;;;;4.72;48.56;101736.50;4821395;29;20071;-77
2021/04/17 00:25:37;;;;;;;0.10;0.10;;;;;;;4.64;48.47;101724.94;4841022;29;20047;-76
2021/04/17 00:28:15;;;;;;;;;;;;;;;;;;;;;
2021/04/17 00:30:41;;;;;;;0.17;0.17;;;;;;;4.63;48.70;101721.41;4819066;29;20135;-76
2021/04/17 00:33:06;;;;;;;0.20;0.20;;;;;;;4.67;48.98;101728.13;4830211;29;20498;-78
2021/04/17 00:35:34;;;;;;;0.30;0.30;;;;;;;4.71;48.18;101728.56;4826517;29;20173;-78
2021/04/17 00:37:59;;;;;;;0.10;0.10;;;;;;;4.68;48.78;101728.97;4817911;29;20048;-79
2021/04/17 00:40:25;;;;;;;0.28;0.25;;;;;;;4.60;48.56;101720.94;4810492;29;20034;-78
2021/04/17 00:42:50;;;;;;;0.35;0.35;;;;;;;4.59;49.04;101719.28;4825384;29;20064;-78
2021/04/17 00:45:16;;;;;;;0.35;0.32;;;;;;;4.62;48.56;101719.72;4835050;29;20426;-77
2021/04/17 00:47:42;;;;;;;0.20;0.20;;;;;;;4.60;48.48;101716.38;4790173;29;20043;-77
2021/04/17 00:50:08;;;;;;;0.20;0.20;;;;;;;4.61;48.92;101718.03;4833408;29;20034;-77
2021/04/17 00:52:34;;;;;;;0.28;0.20;;;;;;;4.61;48.99;101723.47;4836180;29;20058;-77
2021/04/17 00:55:00;;;;;;;0.32;0.30;;;;;;;4.53;49.33;101718.19;4821200;29;20086;-76
2021/04/17 00:57:28;;;;;;;0.20;0.20;;;;;;;4.48;48.84;101710.66;4839586;29;20133;-76
2021/04/17 00:59:53;;;;;;;0.17;0.17;;;;;;;4.53;49.23;101716.31;4826423;29;20065;-77
2021/04/17 01:02:33;;;;;;;0.22;0.22;;;;;;;4.51;49.08;101709.41;4843135;29;20071;-77
2021/04/17 01:05:00;;;;;;;0.10;0.10;;;;;;;4.49;48.68;101708.78;4840479;29;20572;-78
2021/04/17 01:07:53;;;;;;;1.23;0.63;;;;;;;4.49;49.09;101711.50;4826367;29;20481;-78
2021/04/17 01:10:34;;;;;;;1.77;0.40;;;;;;;4.53;49.88;101720.91;4840176;29;20030;-76
2021/04/17 01:13:10;;;;;;;;;;;;;;;;;;;;;
2021/04/17 01:15:44;;;;;;;0.32;0.20;;;;;;;4.40;49.30;101712.66;4848180;29;20054;-79
2021/04/17 01:18:10;;;;;;;0.10;0.10;;;;;;;4.45;49.05;101729.16;4860749;29;20030;-76
2021/04/17 01:20:57;;;;;;;0.28;0.20;;;;;;;4.43;49.04;101720.41;4837947;29;20046;-76
2021/04/17 01:23:45;;;;;;;0.10;0.10;;;;;;;4.32;49.95;101719.88;4852016;29;20038;-76
2021/04/17 01:26:17;;;;;;;0.55;0.40;;;;;;;4.38;49.47;101729.09;4842260;29;20025;-77
2021/04/17 01:28:46;;;;;;;0.25;0.25;;;;;;;4.26;50.58;101717.09;4834845;29;20072;-75
2021/04/17 01:31:15;;;;;;;0.50;0.50;;;;;;;4.34;49.85;101728.63;4847640;29;20044;-76
2021/04/17 01:33:44;;;;;;;0.60;0.52;;;;;;;4.33;49.93;101732.38;4841929;29;20026;-75
2021/04/17 01:36:12;;;;;;;1.10;0.85;;;;;;;4.32;50.48;101736.13;4841068;29;20434;-77
2021/04/17 01:38:44;;;;;;;1.02;1.00;;;;;;;4.27;51.11;101729.59;4825627;29;20030;-76
2021/04/17 01:41:15;;;;;;;1.33;1.23;;;;;;;4.29;50.93;101736.50;4818356;29;20074;-76
2021/04/17 01:43:51;;;;;;;0.70;0.65;;;;;;;4.17;51.05;101710.94;4818371;29;20029;-77
2021/04/17 01:46:21;;;;;;;0.90;0.90;;;;;;;4.21;51.63;101728.50;4826060;29;20121;-75
2021/04/17 01:48:51;;;;;;;0.90;0.90;;;;;;;4.16;51.90;101730.94;4841651;29;20041;-74
2021/04/17 01:51:37;;;;;;;;;;;;;;;;;;;;;
2021/04/17 01:54:07;;;;;;;0.82;0.82;;;;;;;4.00;51.44;101710.34;4839914;29;20034;-74
2021/04/17 01:56:35;;;;;;;1.25;0.60;;;;;;;3.94;52.09;101706.56;4837289;29;20038;-76
2021/04/17 01:59:02;;;;;;;0.52;0.45;;;;;;;3.99;51.85;101725.75;4827825;29;20041;-77
2021/04/17 02:01:27;;;;;;;0.57;0.57;;;;;;;3.92;51.70;101722.13;4846198;29;20033;-77
2021/04/17 02:03:53;;;;;;;0.98;0.75;;;;;;;3.94;51.12;101722.78;4854777;29;20044;-77
2021/04/17 02:06:18;;;;;;;0.70;0.70;;;;;;;3.92;51.33;101735.66;4852001;29;20037;-77
2021/04/17 02:08:44;;;;;;;0.45;0.45;;;;;;;3.86;51.82;101725.59;4833899;29;20102;-77
2021/04/17 02:11:12;;;;;;;0.47;0.47;;;;;;;3.84;51.50;101733.06;4833712;29;20033;-76
2021/04/17 02:13:39;;;;;;;0.50;0.50;;;;;;;3.79;51.47;101730.91;4851908;29;20033;-77
2021/04/17 02:16:10;;;;;;;0.68;0.47;;;;;;;3.76;51.58;101725.06;4845143;29;20109;-77
2021/04/17 02:18:53;;;;;;;0.70;0.55;;;;;;;3.72;51.43;101729.16;4844754;29;20396;-77
2021/04/17 02:21:25;;;;;;;0.20;0.20;;;;;;;3.58;52.22;101712.75;4825157;29;20022;-77
2021/04/17 02:23:53;;;;;;;0.20;0.20;;;;;;;3.67;51.83;101722.44;4833252;29;20161;-76
2021/04/17 02:26:19;;;;;;;0.22;0.22;;;;;;;3.56;52.34;101713.97;4824465;29;20120;-76
2021/04/17 02:28:54;;;;;;;0.40;0.40;;;;;;;3.59;51.60;101719.88;4828860;29;20069;-74
2021/04/17 02:31:28;;;;;;;0.40;0.35;;;;;;;3.60;52.23;101724.22;4817422;29;20030;-77
2021/04/17 02:33:55;;;;;;;0.50;0.30;;;;;;;3.49;52.52;101714.72;4844173;29;20038;-76
2021/04/17 02:36:24;;;;;;;2.80;0.63;;;;;;;3.55;52.20;101734.78;4820535;29;20022;-75
2021/04/17 02:38:54;;;;;;;0.47;0.47;;;;;;;3.34;51.69;101711.19;4838351;29;20038;-77
2021/04/17 02:41:24;;;;;;;0.47;0.47;;;;;;;3.28;51.75;101701.13;4828643;29;20087;-75
2021/04/17 02:43:50;;;;;;;0.65;0.45;;;;;;;3.48;52.37;101728.44;4838375;29;20034;-75
2021/04/17 02:46:23;;;;;;;1.85;1.67;;;;;;;3.23;52.78;101692.75;4841991;29;20030;-75
2021/04/17 02:48:48;;;;;;;1.60;1.50;;;;;;;3.34;54.02;101727.41;4840902;29;20052;-76
2021/04/17 02:51:14;;;;;;;3.58;1.65;;;;;;;3.27;52.80;101727.31;4843848;29;20453;-76
2021/04/17 02:53:42;;;;;;;1.40;1.30;;;;;;;3.15;53.46;101723.38;4833238;29;20117;-74
2021/04/17 02:56:08;;;;;;;1.83;1.27;;;;;;;3.14;53.47;101727.13;4842478;29;20127;-74
2021/04/17 02:58:34;;;;;;;0.80;0.80;;;;;;;3.04;54.42;101721.97;4824035;29;20458;-76
2021/04/17 03:01:00;;;;;;;0.80;0.80;;;;;;;3.05;53.45;101733.63;4798569;29;20034;-74
2021/04/17 03:03:26;;;;;;;0.80;0.80;;;;;;;3.00;53.68;101736.06;4840960;29;20032;-75
2021/04/17 03:05:51;;;;;;;1.90;1.70;;;;;;;2.94;54.77;101733.03;4842205;29;20392;-74
2021/04/17 03:08:17;;;;;;;2.92;2.35;;;;;;;2.90;55.69;101737.13;4836728;29;20454;-75
2021/04/17 03:10:42;;;;;;;2.80;2.47;;;;;;;2.84;55.04;101739.75;4826452;29;20434;-76
2021/04/17 03:13:08;;;;;;;2.88;2.67;;;;;;;2.77;54.79;101731.50;4818870;29;20049;-77
2021/04/17 03:15:35;;;;;;;2.50;2.40;;;;;;;2.76;55.82;101743.34;4817512;29;20030;-75
2021/04/17 03:18:00;;;;;;;1.60;1.50;;;;;;;2.69;55.31;101751.34;4822683;29;20026;-74
2021/04/17 03:20:26;;;;;;;1.83;1.73;;;;;;;2.66;55.69;101737.34;4822487;29;20182;-75
2021/04/17 03:22:54;;;;;;;2.22;2.13;;;;;;;2.66;55.64;101746.31;4825978;29;20030;-74
2021/04/17 03:25:20;;;;;;;3.42;3.17;;;;;;;2.61;55.85;101746.84;4823532;29;20030;-75
2021/04/17 03:27:45;;;;;;;2.35;2.15;;;;;;;2.56;55.53;101748.41;4824744;29;20044;-75
2021/04/17 03:30:15;;;;;;;3.65;2.47;;;;;;;2.49;55.84;101748.28;4840646;29;20041;-75
2021/04/17 03:32:40;;;;;;;1.70;1.60;;;;;;;2.44;56.47;101748.00;4817930;29;20113;-74
2021/04/17 03:35:09;;;;;;;1.55;1.45;;;;;;;2.43;56.00;101741.72;4821265;29;20503;-76
2021/04/17 03:37:35;;;;;;;0.98;0.70;;;;;;;2.44;56.42;101745.28;4840036;29;20049;-75
2021/04/17 03:40:01;;;;;;;0.45;0.45;;;;;;;2.41;55.47;101737.53;4842483;29;20041;-76
2021/04/17 03:42:27;;;;;;;1.13;0.68;;;;;;;2.34;55.36;101725.78;4842422;29;20021;-74
2021/04/17 03:44:52;;;;;;;0.22;0.22;;;;;;;2.46;56.09;101748.63;4798612;29;20614;-74
2021/04/17 03:47:20;;;;;;;0.60;0.60;;;;;;;2.46;55.51;101740.53;4808971;29;20314;-75
2021/04/17 03:49:45;;;;;;;0.47;0.47;;;;;;;2.46;55.25;101743.25;4833082;29;20038;-76
2021/04/17 03:52:12;;;;;;;0.70;0.60;;;;;;;2.47;55.32;101742.22;4837182;29;20045;-76
2021/04/17 03:54:37;;;;;;;0.70;0.70;;;;;;;2.47;55.16;101739.53;4824536;29;20112;-75
2021/04/17 03:57:03;;;;;;;0.50;0.50;;;;;;;2.48;54.98;101749.28;4825055;29;20524;-76
2021/04/17 03:59:29;;;;;;;1.77;1.60;;;;;;;2.47;56.07;101746.78;4810619;29;20131;-77
2021/04/17 04:01:54;;;;;;;2.33;2.22;;;;;;;2.41;55.86;101753.72;4823518;29;20040;-75
2021/04/17 04:04:19;;;;;;;2.97;2.70;;;;;;;2.35;56.35;101751.75;4809967;29;20468;-77
2021/04/17 04:06:45;;;;;;;1.60;1.50;;;;;;;2.24;56.90;101743.03;4840786;29;20061;-75
2021/04/17 04:09:10;;;;;;;1.90;1.80;;;;;;;2.26;55.86;101745.56;4832081;29;20042;-75
2021/04/17 04:11:36;;;;;;;1.60;1.50;;;;;;;2.21;56.66;101743.41;4829692;29;20112;-77
2021/04/17 04:14:02;;;;;;;0.85;0.85;;;;;;;2.17;55.60;101731.28;4821647;29;20037;-76
2021/04/17 04:16:27;;;;;;;0.80;0.80;;;;;;;2.17;56.58;101742.06;4834316;29;20062;-78
2021/04/17 04:19:03;;;;;;;;;;;;;;;;;;;;;
2021/04/17 04:21:28;;;;;;;;;;;;;;;2.19;55.52;101740.06;4840792;29;20032;-74
2021/04/17 04:23:54;;;;;;;;;;;;;;;2.19;55.79;101741.91;4832450;29;19999;-75
2021/04/17 04:26:19;;;;;;;0.50;0.40;;;;;;;2.16;55.75;101740.41;4842297;29;19917;-75
2021/04/17 04:28:45;;;;;;;0.40;0.40;;;;;;;2.13;56.21;101732.66;4811113;29;20044;-76
2021/04/17 04:31:11;;;;;;;0.65;0.63;;;;;;;2.10;55.65;101735.72;4841635;29;20099;-75
2021/04/17 04:33:36;;;;;;;0.80;0.80;;;;;;;2.04;55.63;101731.03;4827251;29;20400;-77
2021/04/17 04:36:01;;;;;;;0.70;0.70;;;;;;;1.97;56.26;101730.06;4823391;29;20087;-77
2021/04/17 04:38:27;;;;;;;0.75;0.75;;;;;;;1.92;56.39;101726.03;4821084;29;20047;-78
2021/04/17 04:40:52;;;;;;;1.20;1.08;;;;;;;1.95;56.87;101743.72;4836470;29;20030;-77
2021/04/17 04:43:18;;;;;;;1.88;1.77;;;;;;;1.81;56.52;101729.13;4822837;29;20030;-75
2021/04/17 04:45:43;;;;;;;1.77;1.67;;;;;;;1.78;56.76;101726.75;4835505;29;20032;-74
2021/04/17 04:48:09;;;;;;;1.60;1.50;;;;;;;1.79;56.42;101728.47;4831501;29;20132;-74
2021/04/17 04:50:38;;;;;;;2.47;1.58;;;;;;;1.71;56.14;101725.81;4830685;29;20037;-74
2021/04/17 04:53:04;;;;;;;1.05;1.00;;;;;;;1.71;56.30;101731.22;4839583;29;20038;-74
2021/04/17 04:55:30;;;;;;;0.55;0.55;;;;;;;1.64;56.73;101722.97;4832453;29;20037;-75
2021/04/17 04:57:55;;;;;;;0.50;0.50;;;;;;;1.62;56.65;101725.00;4810515;29;20048;-75
2021/04/17 05:00:22;;;;;;;0.68;0.45;;;;;;;1.60;56.32;101724.31;4841290;29;20425;-75
2021/04/17 05:02:48;;;;;;;0.95;0.65;;;;;;;1.61;56.83;101733.25;4842061;29;20056;-74
2021/04/17 05:05:13;;;;;;;3.30;1.77;;;;;;;1.60;56.84;101737.81;4817095;29;20451;-74
2021/04/17 05:07:39;;;;;;;2.55;2.45;;;;;;;1.53;57.41;101737.69;4842509;29;20033;-76
2021/04/17 05:10:05;;;;;;;1.88;1.77;;;;;;;1.40;57.74;101731.97;4843005;29;20038;-75
2021/04/17 05:12:31;;;;;;;1.73;1.63;;;;;;;1.44;57.30;101736.00;4833833;29;20090;-76
2021/04/17 05:14:56;;;;;;;1.42;1.42;;;;;;;1.37;57.38;101735.00;4838501;29;20492;-76
2021/04/17 05:17:24;;;;;;;0.70;0.65;;;;;;;1.33;57.79;101729.16;4835285;29;20092;-74
2021/04/17 05:19:52;;;;;;;0.45;0.45;;;;;;;1.32;57.77;101738.22;4827769;29;20034;-77
2021/04/17 05:22:18;;;;;;;0.75;0.75;;;;;;;1.38;57.71;101734.00;4843829;29;20125;-74
2021/04/17 05:24:46;;;;;;;0.30;0.30;;;;;;;1.38;57.23;101723.22;4824802;29;20092;-77
2021/04/17 05:27:22;;;;;;;0.30;0.30;;;;;;;1.30;56.75;101693.59;4822910;29;20026;-76
2021/04/17 05:29:50;;;;;;;3.13;0.40;;;;;;;1.30;57.23;101693.59;4841853;29;20030;-76
2021/04/17 05:32:23;;;;;;;0.45;0.40;;;;;;;1.47;57.37;101718.66;4844819;29;20040;-74
2021/04/17 05:34:54;;;;;;;0.20;0.20;;;;;;;1.57;57.33;101717.41;4828451;29;20112;-75
2021/04/17 05:37:26;;;;;;;0.68;0.38;;;;;;;1.62;56.40;101721.44;4827822;29;20033;-75
2021/04/17 05:40:21;;;;;;;0.40;0.40;;;;;;;1.59;56.69;101711.84;4845760;29;20486;-74
2021/04/17 05:42:47;;;;;;;0.32;0.30;;;;;;;1.68;56.96;101720.75;4817960;29;20178;-77
2021/04/17 05:45:18;;;;;;;0.30;0.30;;;;;;;1.84;56.25;101731.47;4837127;29;20054;-75
2021/04/17 05:47:49;;;;;;;1.73;0.20;;;;;;;1.84;57.44;101719.81;4850590;29;20030;-76
2021/04/17 05:50:24;;;;;;;0.68;0.65;;;;;;;1.88;56.86;101731.94;4814644;29;20034;-75
2021/04/17 05:52:49;;;;;;;0.80;0.80;;;;;;;1.99;56.93;101738.81;4843836;29;20030;-76
2021/04/17 05:55:17;;;;;;;0.95;0.90;;;;;;;1.92;56.80;101722.50;4830299;29;20105;-74
2021/04/17 05:57:43;;;;;;;0.82;0.82;;;;;;;2.11;57.47;101750.88;4829137;29;20102;-76
2021/04/17 06:00:09;;;;;;;1.60;1.50;;;;;;;2.13;57.06;101738.03;4845199;29;20025;-76
2021/04/17 06:02:35;;;;;;;1.52;1.42;;;;;;;2.18;57.91;101743.75;4845336;29;20038;-77
2021/04/17 06:05:04;;;;;;;1.60;1.50;;;;;;;2.19;57.46;101745.47;4840596;29;20073;-76
2021/04/17 06:07:31;;;;;;;2.25;1.20;;;;;;;2.20;58.01;101739.00;4834440;29;20030;-75
2021/04/17 06:09:59;;;;;;;1.08;0.85;;;;;;;2.27;57.27;101742.69;4853396;29;20037;-76
2021/04/17 06:12:24;;;;;;;1.00;1.00;;;;;;;2.36;56.79;101738.06;4858967;29;20038;-72
2021/04/17 06:14:50;;;;;;;1.25;0.90;;;;;;;2.45;57.26;101746.94;4858536;29;20041;-75
2021/04/17 06:17:16;;;;;;;0.50;0.50;;;;;;;2.53;57.43;101741.50;4858568;29;20098;-72
2021/04/17 06:19:41;;;;;;;0.43;0.43;;;;;;;2.66;57.19;101734.63;4859491;29;20042;-74
2021/04/17 06:22:07;;;;;;;0.63;0.57;;;;;;;2.83;56.91;101744.28;4852076;29;20124;-74
2021/04/17 06:24:32;;;;;;;0.88;0.88;;;;;;;2.99;56.62;101750.59;4844097;29;20381;-75
2021/04/17 06:26:58;;;;;;;0.80;0.80;;;;;;;3.13;55.76;101741.66;4821682;29;20103;-74
2021/04/17 06:29:23;;;;;;;1.30;0.95;;;;;;;3.28;56.75;101745.19;4825315;29;20032;-73
2021/04/17 06:31:49;;;;;;;0.88;0.88;;;;;;;3.44;56.01;101737.94;4823332;29;20040;-73
2021/04/17 06:34:14;;;;;;;1.33;0.77;;;;;;;3.62;56.39;101742.97;4823876;29;20033;-75
2021/04/17 06:36:40;;;;;;;0.70;0.70;;;;;;;3.74;55.35;101738.78;4830498;29;20041;-75
2021/04/17 06:39:07;;;;;;;1.10;0.93;;;;;;;3.92;56.19;101743.78;4840039;29;20082;-74
2021/04/17 06:41:33;;;;;;;0.82;0.82;;;;;;;4.07;55.85;101751.03;4816518;29;20061;-75
2021/04/17 06:44:01;;;;;;;0.70;0.70;;;;;;;4.17;55.76;101748.84;4826030;29;20351;-71
2021/04/17 06:46:31;;;;;;;2.15;1.13;;;;;;;4.31;55.86;101747.97;4843613;29;20382;-76
2021/04/17 06:49:00;;;;;;;1.52;1.17;;;;;;;4.45;55.80;101748.13;4837902;29;20127;-75
2021/04/17 06:51:25;;;;;;;0.85;0.85;;;;;;;4.53;55.27;101745.28;4839185;29;20061;-73
2021/04/17 06:53:52;;;;;;;1.10;1.02;;;;;;;4.65;54.79;101751.84;4840857;29;20033;-74
2021/04/17 06:56:21;;;;;;;1.35;1.25;;;;;;;4.78;54.17;101750.31;4820651;29;20042;-74
2021/04/17 06:58:47;;;;;;;1.30;1.20;;;;;;;4.89;54.78;101747.06;4825072;29;20125;-76
2021/04/17 07:01:13;;;;;;;1.30;1.15;;;;;;;4.98;53.76;101748.59;4840419;29;20061;-74
2021/04/17 07:03:38;;;;;;;2.25;1.33;;;;;;;5.07;54.09;101744.69;4841868;29;20041;-75
2021/04/17 07:06:04;;;;;;;1.92;1.83;;;;;;;5.17;53.96;101752.50;4827758;29;20046;-76
2021/04/17 07:08:29;;;;;;;2.17;2.08;;;;;;;5.30;53.41;101749.06;4838472;29;20034;-74
2021/04/17 07:10:55;;;;;;;1.90;1.52;;;;;;;5.40;53.20;101749.53;4825274;29;20033;-76
2021/04/17 07:13:20;;;;;;;2.30;2.10;;;;;;;5.49;53.15;101752.91;4840257;29;20108;-76
2021/04/17 07:15:47;;;;;;;1.23;1.20;;;;;;;5.64;53.09;101751.97;4833919;29;20059;-76
2021/04/17 07:18:30;;;;;;;1.58;1.48;;;;;;;5.81;52.98;101749.72;4847039;29;20038;-77
2021/04/17 07:21:19;;;;;;;1.90;1.80;;;;;;;5.83;52.75;101745.78;4845131;29;20033;-80
2021/04/17 07:23:47;;;;;;;2.72;2.10;;;;;;;5.93;52.33;101748.13;4843956;29;20057;-75
2021/04/17 07:26:28;;;;;;;1.73;1.63;;;;;;;6.07;52.42;101738.16;4846458;29;20026;-78
2021/04/17 07:28:59;;;;;;;1.40;1.30;;;;;;;6.24;52.53;101749.53;4845500;29;20557;-78
2021/04/17 07:31:34;;;;;;;2.70;1.65;;;;;;;6.34;52.47;101744.53;4824945;29;20070;-77
2021/04/17 07:34:13;;;;;;;1.77;1.67;;;;;;;6.51;52.31;101757.72;4829220;29;20122;-79
2021/04/17 07:36:58;;;;;;;2.45;2.33;;;;;;;6.55;52.25;101745.41;4821710;29;20171;-76
2021/04/17 07:39:42;;;;;;;1.77;1.70;;;;;;;6.66;51.74;101757.53;4812504;29;20040;-78
2021/04/17 07:42:16;;;;;;;1.90;1.80;;;;;;;6.73;51.78;101744.78;4844486;29;20062;-77
2021/04/17 07:44:47;;;;;;;2.85;1.73;;;;;;;6.82;52.02;101741.66;4822859;29;20108;-77
2021/04/17 07:47:29;;;;;;;1.98;1.88;;;;;;;6.92;51.95;101726.78;4827639;29;20026;-78
2021/04/17 07:50:05;;;;;;;0.95;0.95;;;;;;;7.18;51.52;101742.25;4821333;29;20030;-78
2021/04/17 07:52:37;;;;;;;1.95;1.17;;;;;;;7.25;50.95;101731.38;4830334;29;20041;-77
2021/04/17 07:55:08;;;;;;;1.58;1.33;;;;;;;7.47;50.95;101732.78;4844016;29;20465;-78
2021/04/17 07:57:44;;;;;;;1.65;1.55;;;;;;;7.59;50.69;101741.13;4816986;29;20054;-78
2021/04/17 08:00:20;;;;;;;2.25;2.03;;;;;;;7.66;50.52;101736.50;4828657;29;20038;-77
2021/04/17 08:02:48;;;;;;;3.42;1.35;;;;;;;7.75;50.67;101728.94;4827219;29;20049;-79
2021/04/17 08:05:16;;;;;;;4.43;2.67;;;;;;;7.91;50.90;101740.41;4819650;29;20038;-78
2021/04/17 08:07:42;;;;;;;1.05;1.00;;;;;;;7.92;50.31;101720.28;4823632;29;20511;-77
2021/04/17 08:10:09;;;;;;;1.33;1.23;;;;;;;8.15;49.95;101733.38;4828282;29;20069;-78
2021/04/17 08:12:38;;;;;;;1.10;1.10;;;;;;;8.29;50.35;101742.31;4821425;29;20035;-76
2021/04/17 08:15:06;;;;;;;1.83;1.30;;;;;;;8.49;49.95;101739.50;4823280;29;20382;-78
2021/04/17 08:17:33;;;;;;;1.50;1.40;;;;;;;8.62;49.96;101735.84;4822401;29;20057;-77
2021/04/17 08:19:59;;;;;;;3.08;1.80;;;;;;;8.73;49.92;101735.13;4808443;29;20034;-78
2021/04/17 08:22:26;;;;;;;2.88;1.50;;;;;;;8.85;49.32;101727.91;4825232;29;20034;-77
2021/04/17 08:24:52;;;;;;;2.45;1.63;;;;;;;8.99;49.08;101727.78;4820640;29;20030;-77
2021/04/17 08:27:19;;;;;;;1.98;1.23;;;;;;;9.23;49.05;101734.28;4840462;29;20092;-78
2021/04/17 08:29:51;;;;;;;1.48;1.38;;;;;;;9.53;47.63;101737.09;4833040;29;20050;-75
2021/04/17 08:32:33;;;;;;;1.25;1.15;;;;;;;9.93;47.17;101739.38;4833086;29;20041;-75
2021/04/17 08:35:00;;;;;;;1.38;1.33;;;;;;;10.38;46.56;101737.31;4819251;29;20065;-75
2021/04/17 08:37:26;;;;;;;0.93;0.80;;;;;;;10.80;46.52;101726.38;4821598;29;20038;-76
2021/04/17 08:39:55;;;;;;;0.70;0.70;;;;;;;11.39;46.12;101739.25;4828916;29;20030;-78
2021/04/17 08:42:44;;;;;;;1.60;0.98;;;;;;;11.97;44.68;101724.66;4825408;29;20038;-77
2021/04/17 08:45:30;;;;;;;0.88;0.88;;;;;;;12.56;44.25;101734.50;4813835;29;20038;-77
2021/04/17 08:47:57;;;;;;;;;;;;;;;13.17;42.76;101736.56;4814622;29;20061;-75
2021/04/17 08:50:27;;;;;;;0.43;0.43;;;;;;;13.17;41.40;101731.09;4828504;29;19916;-75
2021/04/17 08:53:15;;;;;;;1.13;0.60;;;;;;;13.24;40.72;101737.22;4824150;29;20037;-74
2021/04/17 08:55:41;;;;;;;0.40;0.40;;;;;;;13.32;40.95;101734.06;4822505;29;20046;-73
2021/04/17 08:58:23;;;;;;;0.60;0.50;;;;;;;13.74;40.74;101738.22;4842026;29;20569;-71
2021/04/17 09:00:51;;;;;;;0.50;0.50;;;;;;;14.07;39.87;101734.50;4839785;29;20090;-72
2021/04/17 09:03:35;;;;;;;0.93;0.50;;;;;;;14.56;39.34;101735.56;4837226;29;20109;-74
2021/04/17 09:06:01;;;;;;;0.95;0.50;;;;;;;14.87;38.43;101736.69;4822124;29;20030;-72
2021/04/17 09:08:26;;;;;;;0.70;0.50;;;;;;;15.18;38.08;101732.22;4825833;29;20048;-71
2021/04/17 09:10:53;;;;;;;1.95;0.73;;;;;;;15.52;37.11;101731.06;4812783;29;20389;-72
2021/04/17 09:13:20;;;;;;;0.35;0.35;;;;;;;15.87;37.09;101738.72;4825099;29;20030;-71
2021/04/17 09:15:50;;;;;;;0.73;0.40;;;;;;;16.23;36.91;101738.81;4845685;29;20026;-72
2021/04/17 09:18:37;;;;;;;0.30;0.30;;;;;;;16.65;35.80;101741.66;4837592;29;20034;-71
2021/04/17 09:21:09;;;;;;;0.65;0.45;;;;;;;17.01;35.57;101733.38;4822813;29;20401;-69
2021/04/17 09:23:42;;;;;;;0.60;0.50;;;;;;;17.46;35.00;101737.16;4832616;29;20034;-72
2021/04/17 09:26:10;;;;;;;0.30;0.30;;;;;;;17.99;33.98;101739.50;4840362;29;20030;-72
2021/04/17 09:28:37;;;;;;;0.50;0.47;;;;;;;18.49;32.21;101729.22;4822010;29;20095;-73
2021/04/17 09:31:04;;;;;;;0.35;0.35;;;;;;;18.96;31.57;101726.13;4842081;29;20046;-72
2021/04/17 09:33:29;;;;;;;0.38;0.38;;;;;;;19.58;32.29;101737.41;4837499;29;20062;-75
2021/04/17 09:35:55;;;;;;;1.17;0.60;;;;;;;20.14;31.19;101724.78;4821141;29;20068;-73
2021/04/17 09:38:22;;;;;;;0.63;0.60;;;;;;;20.55;29.86;101720.56;4810894;29;20049;-71
2021/04/17 09:40:51;;;;;;;1.75;0.35;;;;;;;21.09;29.50;101734.97;4824931;29;20049;-73
2021/04/17 09:43:26;;;;;;;0.60;0.60;;;;;;;21.60;29.39;101728.44;4842058;29;20044;-72
2021/04/17 09:45:52;;;;;;;0.60;0.60;;;;;;;22.06;28.50;101723.03;4838030;29;20047;-72
2021/04/17 09:48:23;;;;;;;0.60;0.55;;;;;;;22.48;26.69;101734.91;4828725;29;20045;-73
2021/04/17 09:50:51;;;;;;;0.40;0.35;;;;;;;22.78;26.53;101726.91;4816281;29;20034;-72
2021/04/17 09:53:29;;;;;;;0.98;0.88;;;;;;;23.20;25.27;101732.28;4844979;29;20038;-71
2021/04/17 09:56:14;;;;;;;0.57;0.30;;;;;;;23.71;25.01;101711.31;4838298;29;20026;-72
2021/04/17 09:58:44;;;;;;;0.37;0.37;;;;;;;24.31;24.57;101720.13;4822117;29;20041;-72
2021/04/17 10:01:15;;;;;;;0.60;0.60;;;;;;;24.66;23.80;101732.16;4844494;29;20065;-74
2021/04/17 10:03:43;;;;;;;0.20;0.20;;;;;;;25.16;24.19;101725.13;4843999;29;20042;-72
2021/04/17 10:06:29;;;;;;;0.20;0.20;;;;;;;25.80;24.20;101723.38;4844198;29;20037;-73
2021/04/17 10:08:56;;;;;;;0.40;0.25;;;;;;;26.19;22.42;101707.31;4821367;29;20026;-72
2021/04/17 10:11:28;;;;;;;0.93;0.32;;;;;;;26.76;22.75;101713.44;4826948;29;20132;-72
2021/04/17 10:13:54;;;;;;;0.40;0.35;;;;;;;27.31;21.69;101722.56;4843332;29;20335;-72
2021/04/17 10:16:32;;;;;;;0.88;0.22;;;;;;;27.81;22.01;101712.16;4836034;29;20044;-72
2021/04/17 10:18:59;;;;;;;0.20;0.20;;;;;;;28.36;21.29;101721.88;4822445;29;20126;-72
2021/04/17 10:21:28;;;;;;;0.60;0.60;;;;;;;28.79;19.24;101716.66;4848240;29;20103;-72
2021/04/17 10:24:16;;;;;;;0.30;0.30;;;;;;;29.17;19.65;101722.91;4853485;29;20033;-71
2021/04/17 10:26:52;;;;;;;1.30;0.60;;;;;;;29.41;18.50;101717.13;4853939;29;20014;-73
2021/04/17 10:29:18;;;;;;;0.30;0.30;;;;;;;29.62;19.07;101704.72;4855928;29;20011;-72
2021/04/17 10:31:44;;;;;;;0.25;0.20;;;;;;;30.20;18.19;101714.50;4862769;29;20034;-72
2021/04/17 10:34:10;;;;;;;0.43;0.30;;;;;;;30.68;17.66;101709.47;4850105;29;20032;-73
2021/04/17 10:36:36;;;;;;;0.38;0.38;;;;;;;31.17;17.10;101709.97;4838757;29;20037;-72
2021/04/17 10:39:06;;;;;;;0.52;0.30;;;;;;;31.68;17.26;101709.59;4839895;29;21723;-73
2021/04/17 10:41:33;;;;;;;0.52;0.35;;;;;;;32.13;16.80;101705.00;4847840;29;20037;-72
2021/04/17 10:44:15;;;;;;;0.30;0.20;;;;;;;32.46;16.07;101699.72;4839225;29;20023;-71
2021/04/17 10:46:42;;;;;;;0.32;0.30;;;;;;;32.63;14.69;101701.13;4826713;29;20014;-71
2021/04/17 10:49:08;;;;;;;0.35;0.20;;;;;;;32.79;14.94;101693.25;4829391;29;20034;-72
2021/04/17 10:51:39;;;;;;;0.40;0.20;;;;;;;33.26;15.06;101695.72;4837548;29;20473;-72
2021/04/17 10:54:05;;;;;;;0.40;0.40;;;;;;;33.49;14.36;101698.31;4841935;29;20037;-73
2021/04/17 10:56:31;;;;;;;0.20;0.20;;;;;;;33.92;14.21;101690.94;4845445;29;20109;-72
2021/04/17 10:59:06;;;;;;;0.52;0.40;;;;;;;34.56;14.20;101686.72;4838686;29;20430;-73
2021/04/17 11:01:36;;;;;;;0.15;0.15;;;;;;;34.95;13.56;101688.03;4838771;29;20058;-72
2021/04/17 11:04:04;;;;;;;0.40;0.28;;;;;;;35.22;12.63;101693.28;4838242;29;20037;-73
2021/04/17 11:06:40;;;;;;;0.22;0.20;;;;;;;35.52;12.60;101683.56;4820457;29;20026;-72
2021/04/17 11:09:17;;;;;;;2.92;0.20;;;;;;;35.98;12.65;101683.47;4844260;29;20037;-72
2021/04/17 11:11:56;;;;;;;0.13;0.10;;;;;;;36.65;12.92;101686.38;4827854;29;20514;-74
2021/04/17 11:14:24;;;;;;;0.13;0.10;;;;;;;37.27;13.09;101686.75;4841292;29;20044;-73
2021/04/17 11:16:52;;;;;;;3.83;0.20;;;;;;;37.86;12.70;101682.09;4820908;29;20018;-75
2021/04/17 11:19:28;;;;;;;0.10;0.10;;;;;;;38.54;12.35;101686.13;4825526;29;20061;-73
2021/04/17 11:22:21;;;;;;;0.10;0.10;;;;;;;39.06;10.52;101685.72;4811116;29;20026;-73
2021/04/17 11:24:56;;;;;;;0.20;0.20;;;;;;;39.32;10.83;101683.22;4815454;29;20045;-73
2021/04/17 11:27:21;;;;;;;0.20;0.20;;;;;;;39.31;9.92;101673.03;4836771;29;20029;-73
2021/04/17 11:29:47;;;;;;;0.30;0.20;;;;;;;39.52;10.39;101668.97;4837361;29;20488;-76
2021/04/17 11:32:12;;;;;;;0.10;0.10;;;;;;;39.89;10.43;101666.22;4822169;29;20117;-76
2021/04/17 11:34:42;;;;;;;0.28;0.28;;;;;;;40.23;9.42;101662.22;4820204;29;20457;-76
2021/04/17 11:37:07;;;;;;;0.10;0.10;;;;;;;40.37;9.11;101663.97;4828169;29;20040;-76
2021/04/17 11:39:33;;;;;;;0.10;0.10;;;;;;;40.64;9.42;101655.16;4843053;29;20042;-76
2021/04/17 11:41:58;;;;;;;0.30;0.30;;;;;;;40.90;8.40;101661.09;4840633;29;20034;-75
2021/04/17 11:44:23;;;;;;;2.22;0.35;;;;;;;40.72;7.63;101655.81;4819650;29;20482;-77
2021/04/17 11:46:49;;;;;;;0.30;0.30;;;;;;;40.63;7.22;101654.34;4840373;29;20099;-76